Time;durP1;ratioP1;P1;durP2;ratioP2;P2;SDS_P1;SDS_P2;PMS_P1;PMS_P2;Temp;Humidity;BMP_temperature;BMP_pressure;BME280_temperature;BME280_humidity;BME280_pressure;Samples;Min_cycle;Max_cycle;Signal;HPM_P1;HPM_P2
2021/05/10 00:01:30;;;;;;;3.47;0.88;;;21.80;50.20;;;;;;5029633;28;20095;-74
2021/05/10 00:03:56;;;;;;;3.60;1.08;;;21.80;50.80;;;;;;5029534;28;20030;-75
2021/05/10 00:06:22;;;;;;;3.63;1.08;;;21.70;53.40;;;;;;5028179;28;20495;-74
2021/05/10 00:08:48;;;;;;;4.75;0.90;;;21.60;53.20;;;;;;5029386;28;20021;-74
2021/05/10 00:11:14;;;;;;;2.47;1.08;;;21.60;53.60;;;;;;5031019;28;20025;-74
2021/05/10 00:13:45;;;;;;;3.28;1.10;;;21.50;53.90;;;;;;5029552;28;20049;-74
2021/05/10 00:16:11;;;;;;;1.50;1.02;;;21.40;54.20;;;;;;5029745;28;20108;-74
2021/05/10 00:18:37;;;;;;;2.42;1.00;;;21.30;55.10;;;;;;5029573;28;20467;-75
2021/05/10 00:21:03;;;;;;;7.00;1.52;;;21.30;52.80;;;;;;5029308;28;20045;-75
2021/05/10 00:23:28;;;;;;;1.08;0.80;;;21.30;52.80;;;;;;5029157;28;20033;-73
2021/05/10 00:25:55;;;;;;;1.42;0.80;;;21.30;52.60;;;;;;5029685;28;20448;-74
2021/05/10 00:28:20;;;;;;;2.58;0.90;;;21.20;52.60;;;;;;5028551;28;20506;-73
2021/05/10 00:30:46;;;;;;;3.92;1.13;;;21.10;52.90;;;;;;5028057;28;20045;-74
2021/05/10 00:33:11;;;;;;;1.92;0.98;;;21.10;53.60;;;;;;5028895;28;20456;-74
2021/05/10 00:35:37;;;;;;;1.70;1.00;;;21.10;53.10;;;;;;5028055;28;20036;-74
2021/05/10 00:38:03;;;;;;;4.03;1.25;;;21.10;53.20;;;;;;5029587;28;20025;-73
2021/05/10 00:40:31;;;;;;;2.05;1.10;;;21.00;53.80;;;;;;5028925;28;20460;-74
2021/05/10 00:42:57;;;;;;;4.30;0.90;;;20.90;53.20;;;;;;5029565;28;20048;-74
2021/05/10 00:45:26;;;;;;;5.13;1.13;;;20.90;53.40;;;;;;5029121;28;20379;-73
2021/05/10 00:47:52;;;;;;;2.15;1.10;;;20.90;53.50;;;;;;5028876;28;20039;-74
2021/05/10 00:50:20;;;;;;;1.42;1.00;;;20.90;53.70;;;;;;5031013;28;20323;-74
2021/05/10 00:52:46;;;;;;;5.83;1.00;;;20.80;53.70;;;;;;5033376;28;20108;-73
2021/05/10 00:55:13;;;;;;;3.42;0.93;;;20.80;54.10;;;;;;5032806;28;20281;-74
2021/05/10 00:57:46;;;;;;;2.35;1.25;;;20.80;54.10;;;;;;5032747;28;20095;-74
2021/05/10 01:00:13;;;;;;;5.57;1.15;;;20.80;54.00;;;;;;5032434;28;20029;-75
2021/05/10 01:02:40;;;;;;;1.23;1.00;;;20.80;54.00;;;;;;5032837;28;20076;-73
2021/05/10 01:05:07;;;;;;;2.03;1.10;;;20.70;54.00;;;;;;5033233;28;20443;-74
2021/05/10 01:07:34;;;;;;;2.77;1.10;;;20.70;54.00;;;;;;5033412;28;20345;-74
2021/05/10 01:10:04;;;;;;;3.30;1.02;;;20.60;54.10;;;;;;5032920;28;20298;-75
2021/05/10 01:12:29;;;;;;;1.30;0.75;;;20.60;54.30;;;;;;5032643;28;20037;-74
2021/05/10 01:14:55;;;;;;;4.60;1.10;;;20.60;54.40;;;;;;5032528;28;20033;-74
2021/05/10 01:17:21;;;;;;;3.78;0.93;;;20.60;55.00;;;;;;5031406;28;20042;-74
2021/05/10 01:19:47;;;;;;;2.53;1.10;;;20.50;54.60;;;;;;5034452;28;20136;-74
2021/05/10 01:22:16;;;;;;;2.03;0.90;;;20.60;54.80;;;;;;5032478;28;20120;-74
2021/05/10 01:24:42;;;;;;;1.67;1.20;;;20.50;55.10;;;;;;5032380;28;20068;-74
2021/05/10 01:27:08;;;;;;;1.50;1.02;;;20.40;55.30;;;;;;5032323;28;20057;-74
2021/05/10 01:29:33;;;;;;;3.38;1.10;;;20.40;55.20;;;;;;5032396;28;20112;-74
2021/05/10 01:31:59;;;;;;;2.83;1.30;;;20.30;55.30;;;;;;5033721;28;20021;-74
2021/05/10 01:34:25;;;;;;;7.78;0.90;;;20.30;55.60;;;;;;5032125;28;20033;-74
2021/05/10 01:36:51;;;;;;;3.00;1.08;;;20.30;55.60;;;;;;5031891;28;20056;-74
2021/05/10 01:39:16;;;;;;;1.02;0.88;;;20.20;55.60;;;;;;5032197;28;20123;-74
2021/05/10 01:41:42;;;;;;;3.10;1.35;;;20.20;55.40;;;;;;5032083;28;20041;-74
2021/05/10 01:44:07;;;;;;;1.77;1.35;;;20.20;55.70;;;;;;5033739;28;20052;-75
2021/05/10 01:46:33;;;;;;;2.25;1.10;;;20.20;56.00;;;;;;5032272;28;20056;-75
2021/05/10 01:48:59;;;;;;;2.95;1.10;;;20.20;57.90;;;;;;5031907;28;20417;-75
2021/05/10 01:51:25;;;;;;;1.75;1.05;;;20.10;59.10;;;;;;5031834;28;20044;-73
2021/05/10 01:53:52;;;;;;;2.63;0.98;;;20.00;59.90;;;;;;5030947;28;20046;-73
2021/05/10 01:56:18;;;;;;;6.20;1.48;;;19.90;60.70;;;;;;5033236;28;20021;-73
2021/05/10 01:58:49;;;;;;;6.35;1.35;;;19.90;61.10;;;;;;5031854;28;20049;-75
2021/05/10 02:01:15;;;;;;;2.05;1.20;;;19.90;61.30;;;;;;5031428;28;20448;-75
2021/05/10 02:03:42;;;;;;;2.78;1.10;;;19.90;61.10;;;;;;5030402;28;20033;-73
2021/05/10 02:06:07;;;;;;;2.45;1.05;;;19.90;60.80;;;;;;5031547;28;20029;-75
2021/05/10 02:08:33;;;;;;;3.88;1.30;;;19.90;61.70;;;;;;5031871;28;20030;-75
2021/05/10 02:10:59;;;;;;;1.67;1.00;;;19.80;62.90;;;;;;5033141;28;20064;-74
2021/05/10 02:13:25;;;;;;;1.10;0.98;;;19.70;63.60;;;;;;5031553;28;20045;-74
2021/05/10 02:15:54;;;;;;;3.10;0.82;;;19.70;63.60;;;;;;5031408;28;20057;-73
2021/05/10 02:18:21;;;;;;;4.57;1.13;;;19.60;63.40;;;;;;5030027;28;20045;-75
2021/05/10 02:20:48;;;;;;;4.78;1.20;;;19.60;61.70;;;;;;5030825;28;20432;-75
2021/05/10 02:23:20;;;;;;;2.17;1.35;;;19.60;60.40;;;;;;5033008;28;20037;-75
2021/05/10 02:25:50;;;;;;;3.72;1.27;;;19.60;59.30;;;;;;5047135;28;20120;-75
2021/05/10 02:28:18;;;;;;;2.47;1.00;;;19.70;59.10;;;;;;5031490;28;20363;-75
2021/05/10 02:30:45;;;;;;;1.40;1.15;;;19.70;58.90;;;;;;5031316;28;20045;-75
2021/05/10 02:33:18;;;;;;;3.75;1.02;;;19.70;59.10;;;;;;5031411;28;20033;-74
2021/05/10 02:35:44;;;;;;;2.13;1.10;;;19.70;58.80;;;;;;5030141;28;20474;-74
2021/05/10 02:38:12;;;;;;;4.18;1.20;;;19.60;59.60;;;;;;5032697;28;20343;-75
2021/05/10 02:40:37;;;;;;;4.77;1.00;;;19.70;58.90;;;;;;5031063;28;20050;-74
2021/05/10 02:43:04;;;;;;;1.38;1.02;;;19.60;59.20;;;;;;5030932;28;20641;-74
2021/05/10 02:45:30;;;;;;;4.20;1.30;;;19.60;59.50;;;;;;5031140;28;20060;-73
2021/05/10 02:47:56;;;;;;;2.25;1.17;;;19.60;59.20;;;;;;5030984;28;20099;-74
2021/05/10 02:50:25;;;;;;;6.40;1.30;;;19.60;59.40;;;;;;5030828;28;20366;-73
2021/05/10 02:52:51;;;;;;;2.95;1.00;;;19.60;59.50;;;;;;5032163;28;20402;-73
2021/05/10 02:55:17;;;;;;;3.45;1.30;;;19.60;59.30;;;;;;5029844;28;20069;-74
2021/05/10 02:57:43;;;;;;;4.13;1.23;;;19.70;59.20;;;;;;5030672;28;20515;-74
2021/05/10 03:00:12;;;;;;;2.65;1.02;;;19.60;59.20;;;;;;5023890;28;20104;-74
2021/05/10 03:02:38;;;;;;;1.30;1.00;;;19.60;59.00;;;;;;5013488;28;20026;-74
2021/05/10 03:05:05;;;;;;;5.07;1.20;;;19.70;59.10;;;;;;5032038;28;20447;-73
2021/05/10 03:07:31;;;;;;;3.55;1.20;;;19.60;58.90;;;;;;5030639;28;20143;-74
2021/05/10 03:09:57;;;;;;;2.33;1.00;;;19.60;59.80;;;;;;5030284;28;20041;-73
2021/05/10 03:12:23;;;;;;;4.38;1.38;;;19.60;59.20;;;;;;5030419;28;20033;-73
2021/05/10 03:14:48;;;;;;;2.97;1.50;;;19.60;60.50;;;;;;5030042;28;20045;-73
2021/05/10 03:17:14;;;;;;;4.38;1.20;;;19.60;59.30;;;;;;5031679;28;20046;-73
2021/05/10 03:19:39;;;;;;;1.50;1.10;;;19.60;59.30;;;;;;5029809;28;20040;-72
2021/05/10 03:22:05;;;;;;;5.45;1.20;;;19.50;59.20;;;;;;5029054;28;20329;-75
2021/05/10 03:24:31;;;;;;;1.20;1.10;;;19.50;59.90;;;;;;5030093;28;20076;-75
2021/05/10 03:26:56;;;;;;;7.53;1.20;;;19.60;59.40;;;;;;5030506;28;20040;-73
2021/05/10 03:29:22;;;;;;;2.72;1.35;;;19.50;59.50;;;;;;5029787;28;20053;-73
2021/05/10 03:31:47;;;;;;;5.38;1.10;;;19.60;59.70;;;;;;5031448;28;20112;-74
2021/05/10 03:34:16;;;;;;;9.05;1.33;;;19.60;59.60;;;;;;5029861;28;20107;-74
2021/05/10 03:36:42;;;;;;;1.65;1.25;;;19.60;59.90;;;;;;5028519;28;20125;-74
2021/05/10 03:39:08;;;;;;;2.00;1.23;;;19.60;59.60;;;;;;5029606;28;20045;-74
2021/05/10 03:41:33;;;;;;;5.85;1.20;;;19.60;60.00;;;;;;5029446;28;20107;-74
2021/05/10 03:43:59;;;;;;;2.58;1.30;;;19.60;60.00;;;;;;5031322;28;20021;-74
2021/05/10 03:46:25;;;;;;;2.40;1.02;;;19.70;59.80;;;;;;5029639;28;20053;-74
2021/05/10 03:48:51;;;;;;;1.60;1.00;;;19.70;59.80;;;;;;5029550;28;20033;-73
2021/05/10 03:51:17;;;;;;;3.88;1.73;;;19.70;60.10;;;;;;5028704;28;20037;-74
2021/05/10 03:53:43;;;;;;;3.63;1.40;;;19.70;60.00;;;;;;5029765;28;20115;-73
2021/05/10 03:56:10;;;;;;;3.60;1.08;;;19.70;60.00;;;;;;5031048;28;20033;-74
2021/05/10 03:58:36;;;;;;;2.72;1.10;;;19.70;59.90;;;;;;5029388;28;20041;-75
2021/05/10 04:01:02;;;;;;;1.83;1.20;;;19.70;60.40;;;;;;5027917;28;20427;-75
2021/05/10 04:03:33;;;;;;;4.05;1.40;;;19.70;60.50;;;;;;5029330;28;20069;-75
2021/05/10 04:11:24;;;;;;;7.45;1.50;;;19.70;61.30;;;;;;5030866;28;20392;-74
2021/05/10 04:13:55;;;;;;;3.13;1.42;;;19.70;61.00;;;;;;5028553;28;20534;-74
2021/05/10 04:16:20;;;;;;;3.25;1.58;;;19.70;60.70;;;;;;5028118;28;20539;-73
2021/05/10 04:18:46;;;;;;;5.72;1.58;;;19.70;61.20;;;;;;5027604;28;20034;-75
2021/05/10 04:21:12;;;;;;;2.65;1.00;;;19.80;61.40;;;;;;5029021;28;20034;-74
2021/05/10 04:23:37;;;;;;;1.80;1.20;;;19.70;60.70;;;;;;5028983;28;20117;-74
2021/05/10 04:26:03;;;;;;;1.20;1.00;;;19.80;60.90;;;;;;5030154;28;20375;-74
2021/05/10 04:28:30;;;;;;;2.63;1.30;;;19.80;61.10;;;;;;5028969;28;20366;-73
2021/05/10 04:30:56;;;;;;;2.17;1.00;;;19.80;60.80;;;;;;5029312;28;20040;-73
2021/05/10 04:33:34;;;;;;;1.58;1.40;;;19.80;60.60;;;;;;5029096;28;20036;-73
2021/05/10 04:36:02;;;;;;;2.15;1.05;;;19.90;60.90;;;;;;5029083;28;20045;-74
2021/05/10 04:38:27;;;;;;;;;;;19.80;60.50;;;;;;5028506;28;20448;-74
2021/05/10 04:40:57;;;;;;;2.83;1.38;;;19.90;60.80;;;;;;5045916;28;19964;-74
2021/05/10 04:43:23;;;;;;;6.47;2.03;;;19.90;61.10;;;;;;5028799;28;20124;-74
2021/05/10 04:45:49;;;;;;;7.03;1.30;;;19.90;61.00;;;;;;5028053;28;20056;-75
2021/05/10 04:48:15;;;;;;;5.53;1.42;;;19.90;60.60;;;;;;5028850;28;20420;-73
2021/05/10 04:50:41;;;;;;;3.20;1.50;;;20.00;63.10;;;;;;5027625;28;20026;-74
2021/05/10 04:53:12;;;;;;;3.38;1.88;;;20.00;64.30;;;;;;5030119;28;20356;-73
2021/05/10 04:55:39;;;;;;;8.65;1.88;;;20.00;64.60;;;;;;5028659;28;20073;-74
2021/05/10 04:58:04;;;;;;;7.60;1.75;;;19.90;67.50;;;;;;5028660;28;20045;-74
2021/05/10 05:00:30;;;;;;;5.95;1.92;;;19.90;66.70;;;;;;5028780;28;20098;-73
2021/05/10 05:02:56;;;;;;;4.70;1.50;;;20.00;68.20;;;;;;5029111;28;20029;-75
2021/05/10 05:05:21;;;;;;;3.92;0.98;;;20.00;65.90;;;;;;5028986;28;20444;-74
2021/05/10 05:07:47;;;;;;;2.03;1.38;;;20.10;64.20;;;;;;5029490;28;20459;-74
2021/05/10 05:10:13;;;;;;;4.18;1.20;;;20.20;64.00;;;;;;5027667;28;20522;-74
2021/05/10 05:12:39;;;;;;;6.43;1.60;;;20.30;63.20;;;;;;5028760;28;20506;-75
2021/05/10 05:15:09;;;;;;;3.63;1.63;;;20.30;63.50;;;;;;5028626;28;20072;-76
2021/05/10 05:20:20;;;;;;;5.93;1.25;;;20.40;64.60;;;;;;5539917;23;20081;-76
2021/05/10 05:26:07;;;;;;;4.07;1.73;;;20.40;62.80;;;;;;5013636;28;20611;-76
2021/05/10 05:31:57;;;;;;;3.28;1.40;;;20.40;62.60;;;;;;5013731;28;20040;-72
2021/05/10 05:37:44;;;;;;;4.38;1.63;;;20.40;64.40;;;;;;5015124;28;20025;-79
2021/05/10 05:43:32;;;;;;;3.70;1.25;;;20.30;66.40;;;;;;5018761;28;20032;-81
2021/05/10 05:49:20;;;;;;;7.82;1.88;;;20.30;67.20;;;;;;5018189;28;20093;-75
2021/05/10 05:55:09;;;;;;;13.07;2.60;;;20.30;69.10;;;;;;5018901;28;20052;-80
2021/05/10 06:00:58;;;;;;;11.80;2.78;;;20.40;67.80;;;;;;5018271;28;20107;-79
2021/05/10 06:06:45;;;;;;;15.35;3.00;;;20.60;70.20;;;;;;5018650;28;20080;-81
2021/05/10 06:12:33;;;;;;;7.63;1.77;;;20.60;67.10;;;;;;5018646;28;20045;-80
2021/05/10 06:18:20;;;;;;;6.47;1.90;;;20.60;68.90;;;;;;5018200;28;20033;-81
2021/05/10 06:20:46;;;;;;;4.55;1.58;;;20.50;68.40;;;;;;5013597;28;20045;-82
2021/05/10 06:23:12;;;;;;;10.18;1.90;;;20.50;67.50;;;;;;5015229;28;20341;-81
2021/05/10 06:25:37;;;;;;;5.78;1.73;;;20.60;67.30;;;;;;5012964;28;20064;-81
2021/05/10 06:28:03;;;;;;;4.45;1.50;;;20.60;67.60;;;;;;5012075;28;20058;-80
2021/05/10 06:30:29;;;;;;;3.90;1.70;;;20.60;67.30;;;;;;5012586;28;20040;-83
2021/05/10 06:32:55;;;;;;;2.78;1.70;;;20.70;67.00;;;;;;5012766;28;20022;-85
2021/05/10 06:35:21;;;;;;;5.68;1.90;;;20.70;66.40;;;;;;5012401;28;20021;-83
2021/05/10 06:37:48;;;;;;;5.57;1.63;;;20.80;66.30;;;;;;5012181;28;20022;-85
2021/05/10 06:40:14;;;;;;;4.80;1.80;;;20.90;65.80;;;;;;5011266;28;20140;-81
2021/05/10 06:42:39;;;;;;;6.88;1.80;;;20.90;66.00;;;;;;5010054;28;20134;-81
2021/05/10 06:45:07;;;;;;;4.20;1.60;;;21.00;65.60;;;;;;5009871;28;20026;-82
2021/05/10 06:47:34;;;;;;;;;;;21.00;66.00;;;;;;5011458;28;20066;-83
2021/05/10 06:50:00;;;;;;;3.67;1.65;;;21.10;65.80;;;;;;5011171;28;19905;-81
2021/05/10 06:52:26;;;;;;;3.78;1.60;;;21.20;65.30;;;;;;5011212;28;20049;-79
2021/05/10 06:54:52;;;;;;;7.03;2.95;;;21.30;65.60;;;;;;5010710;28;20041;-80
2021/05/10 06:57:17;;;;;;;8.73;2.40;;;21.40;66.00;;;;;;5011064;28;20400;-81
2021/05/10 06:59:44;;;;;;;5.82;2.22;;;21.60;66.20;;;;;;5010210;28;20103;-81
2021/05/10 07:02:10;;;;;;;5.55;1.80;;;21.80;65.90;;;;;;5011072;28;20053;-80
2021/05/10 07:04:36;;;;;;;6.68;1.98;;;21.90;65.20;;;;;;5010631;28;20041;-79
2021/05/10 07:07:01;;;;;;;5.72;1.90;;;22.10;64.80;;;;;;5007909;28;20463;-81
2021/05/10 07:09:27;;;;;;;17.85;2.20;;;22.40;64.70;;;;;;5010708;28;20091;-83
2021/05/10 07:11:52;;;;;;;3.25;1.45;;;22.50;64.90;;;;;;5010027;28;20461;-81
2021/05/10 07:14:18;;;;;;;5.75;2.28;;;22.60;64.00;;;;;;5012555;28;20030;-85
2021/05/10 07:16:45;;;;;;;9.93;5.72;;;22.70;63.50;;;;;;5011394;28;20256;-83
2021/05/10 07:19:10;;;;;;;6.15;2.05;;;22.80;63.50;;;;;;5010796;28;20033;-77
2021/05/10 07:21:37;;;;;;;7.63;4.47;;;22.90;63.30;;;;;;5010112;28;20049;-80
2021/05/10 07:24:03;;;;;;;8.95;3.10;;;22.90;64.30;;;;;;5010755;28;20030;-84
2021/05/10 07:26:28;;;;;;;3.47;1.80;;;22.90;63.60;;;;;;5010453;28;20034;-79
2021/05/10 07:28:54;;;;;;;5.53;1.60;;;22.90;63.60;;;;;;5012181;28;20048;-81
2021/05/10 07:31:20;;;;;;;6.28;2.13;;;22.90;64.20;;;;;;5009579;28;20501;-82
2021/05/10 07:33:45;;;;;;;3.10;1.65;;;23.00;63.50;;;;;;5010685;28;20444;-83
2021/05/10 07:36:11;;;;;;;5.90;1.63;;;23.00;64.00;;;;;;5009723;28;20339;-80
2021/05/10 07:38:37;;;;;;;5.15;1.80;;;23.00;63.90;;;;;;5010492;28;20099;-80
2021/05/10 07:41:03;;;;;;;7.55;1.92;;;23.10;63.20;;;;;;5011836;28;20041;-79
2021/05/10 07:43:29;;;;;;;3.15;1.65;;;23.00;63.60;;;;;;5006301;28;20407;-79
2021/05/10 07:45:55;;;;;;;7.03;1.83;;;23.00;63.20;;;;;;5009978;28;20042;-79
2021/05/10 07:48:20;;;;;;;2.65;1.40;;;23.00;63.40;;;;;;5010524;28;20053;-74
2021/05/10 07:50:46;;;;;;;4.60;1.40;;;23.00;62.50;;;;;;5009289;28;20440;-81
2021/05/10 07:53:13;;;;;;;6.47;1.55;;;23.00;61.80;;;;;;5010472;28;20080;-82
2021/05/10 07:55:39;;;;;;;5.32;1.40;;;23.10;61.10;;;;;;5008637;28;20121;-81
2021/05/10 07:58:05;;;;;;;2.05;1.40;;;23.20;60.20;;;;;;5010204;28;20120;-79
2021/05/10 08:00:33;;;;;;;7.28;2.15;;;23.20;59.50;;;;;;5008829;28;20179;-83
2021/05/10 08:03:06;;;;;;;3.58;1.73;;;23.30;59.20;;;;;;5009009;28;20438;-78
2021/05/10 08:05:33;;;;;;;3.67;1.40;;;23.40;59.30;;;;;;5008953;28;20022;-82
2021/05/10 08:07:58;;;;;;;5.75;1.20;;;23.40;59.30;;;;;;5012039;28;20045;-82
2021/05/10 08:10:24;;;;;;;5.22;1.38;;;23.30;59.00;;;;;;5009595;28;20094;-83
2021/05/10 08:12:50;;;;;;;3.35;1.40;;;23.30;59.20;;;;;;5009209;28;20724;-85
2021/05/10 08:15:16;;;;;;;5.03;1.17;;;23.30;59.30;;;;;;5012242;28;20198;-82
2021/05/10 08:17:41;;;;;;;6.43;1.40;;;23.40;59.30;;;;;;5015492;28;20038;-87
2021/05/10 08:20:08;;;;;;;1.77;1.30;;;23.40;59.50;;;;;;5012034;28;20473;-78
2021/05/10 08:22:33;;;;;;;3.22;1.38;;;23.40;59.60;;;;;;5009508;28;20109;-79
2021/05/10 08:24:59;;;;;;;2.28;1.52;;;23.30;59.50;;;;;;5009110;28;20057;-81
2021/05/10 08:27:27;;;;;;;3.83;1.45;;;23.30;59.50;;;;;;5009797;28;20468;-80
2021/05/10 08:29:53;;;;;;;;;;;23.30;59.50;;;;;;5009957;28;20026;-83
2021/05/10 08:32:18;;;;;;;7.57;1.38;;;23.30;59.40;;;;;;5009900;28;19997;-77
2021/05/10 08:34:44;;;;;;;2.00;1.40;;;23.30;59.60;;;;;;5010115;28;20034;-82
2021/05/10 08:37:10;;;;;;;3.63;1.42;;;23.20;59.20;;;;;;5010001;28;20092;-82
2021/05/10 08:39:35;;;;;;;2.92;1.35;;;23.20;59.70;;;;;;5010138;28;20100;-84
2021/05/10 08:42:01;;;;;;;4.88;1.35;;;23.20;59.20;;;;;;5010097;28;20100;-81
2021/05/10 08:44:27;;;;;;;7.43;1.83;;;23.20;59.00;;;;;;4992705;28;20088;-81
2021/05/10 08:46:53;;;;;;;4.65;1.48;;;23.40;59.20;;;;;;4991833;28;20053;-83
2021/05/10 08:49:21;;;;;;;2.83;1.45;;;23.50;58.30;;;;;;4989845;28;20078;-79
2021/05/10 08:51:48;;;;;;;;;;;23.60;58.50;;;;;;4990110;28;20042;-82
2021/05/10 08:54:25;;;;;;;2.25;1.13;;;23.60;58.10;;;;;;4990066;28;20004;-80
2021/05/10 08:56:52;;;;;;;3.43;1.60;;;23.70;58.30;;;;;;4988414;28;20038;-84
2021/05/10 08:59:19;;;;;;;3.55;1.70;;;23.60;58.20;;;;;;4991590;28;20543;-84
2021/05/10 09:01:50;;;;;;;4.25;1.60;;;23.60;58.20;;;;;;4970737;28;20074;-77
2021/05/10 09:04:17;;;;;;;5.47;2.22;;;23.60;58.30;;;;;;4969992;28;20046;-78
2021/05/10 09:06:43;;;;;;;4.27;1.33;;;23.70;58.60;;;;;;4970008;28;20043;-80
2021/05/10 09:09:09;;;;;;;4.18;1.50;;;24.10;58.20;;;;;;4969267;28;20043;-79
2021/05/10 09:11:55;;;;;;;3.35;1.20;;;24.30;57.50;;;;;;4970550;28;20027;-79
2021/05/10 09:14:31;;;;;;;4.72;1.40;;;24.60;57.40;;;;;;4974000;28;20034;-76
2021/05/10 09:16:57;;;;;;;5.47;1.80;;;24.80;57.30;;;;;;4975140;28;20101;-76
2021/05/10 09:19:51;;;;;;;3.75;1.75;;;24.60;57.20;;;;;;4973792;28;20706;-75
2021/05/10 09:22:17;;;;;;;4.53;1.42;;;24.60;57.40;;;;;;4973705;28;20035;-78
2021/05/10 09:24:45;;;;;;;2.63;1.52;;;24.60;57.40;;;;;;4973828;28;20416;-78
2021/05/10 09:27:22;;;;;;;;;;;24.60;57.90;;;;;;4988976;28;20035;-80
2021/05/10 09:29:52;;;;;;;3.63;1.45;;;24.70;57.70;;;;;;4972514;28;19921;-77
2021/05/10 09:32:29;;;;;;;4.13;1.50;;;24.60;57.30;;;;;;4974607;28;20027;-76
2021/05/10 09:35:18;;;;;;;2.13;1.23;;;24.70;57.60;;;;;;4973629;28;20636;-76
2021/05/10 09:37:44;;;;;;;3.40;1.48;;;24.90;57.70;;;;;;4968523;28;20043;-78
2021/05/10 09:40:10;;;;;;;9.13;1.77;;;24.90;57.50;;;;;;4968363;28;20066;-76
2021/05/10 09:42:48;;;;;;;2.65;1.30;;;25.00;57.40;;;;;;4972879;28;20436;-79
2021/05/10 09:45:38;;;;;;;7.20;1.80;;;25.10;56.90;;;;;;4973189;28;20031;-78
2021/05/10 09:48:11;;;;;;;3.92;1.95;;;25.40;56.50;;;;;;4973194;28;20031;-77
2021/05/10 09:50:51;;;;;;;3.88;1.98;;;25.80;55.40;;;;;;4972222;28;20640;-83
2021/05/10 09:53:42;;;;;;;3.30;1.48;;;26.00;55.00;;;;;;4974680;28;20031;-82
2021/05/10 09:56:32;;;;;;;6.90;2.78;;;26.40;54.30;;;;;;4973811;28;20039;-79
2021/05/10 09:59:00;;;;;;;3.60;2.00;;;27.30;52.60;;;;;;4973581;28;20035;-81
2021/05/10 10:01:39;;;;;;;3.10;1.33;;;27.80;51.60;;;;;;4972896;28;20130;-79
2021/05/10 10:04:05;;;;;;;9.25;2.60;;;27.50;51.00;;;;;;4973019;28;20050;-79
2021/05/10 10:06:30;;;;;;;9.23;2.38;;;27.40;50.90;;;;;;4971505;28;20038;-77
2021/05/10 10:08:57;;;;;;;3.53;1.52;;;27.30;51.10;;;;;;4971571;28;20050;-79
2021/05/10 10:11:24;;;;;;;2.65;1.58;;;27.30;51.50;;;;;;4972871;28;20095;-79
2021/05/10 10:13:51;;;;;;;5.50;1.73;;;27.50;50.70;;;;;;4974033;28;20058;-80
2021/05/10 10:16:20;;;;;;;6.97;1.42;;;27.30;50.20;;;;;;4968597;28;20059;-80
2021/05/10 10:18:47;;;;;;;6.78;1.35;;;27.30;50.50;;;;;;4964941;28;20507;-79
2021/05/10 10:21:15;;;;;;;7.60;1.63;;;27.20;50.60;;;;;;4972548;28;20047;-80
2021/05/10 10:23:43;;;;;;;4.43;1.50;;;27.20;50.90;;;;;;4971404;28;20388;-81
2021/05/10 10:26:15;;;;;;;4.93;1.25;;;27.30;50.30;;;;;;4974357;28;20364;-81
2021/05/10 10:28:46;;;;;;;4.97;1.50;;;27.30;50.10;;;;;;4973245;28;20058;-79
2021/05/10 10:31:18;;;;;;;6.90;1.58;;;27.10;49.80;;;;;;4972451;28;20043;-78
2021/05/10 10:33:56;;;;;;;1.85;1.17;;;27.00;49.80;;;;;;4972477;28;20050;-83
2021/05/10 10:36:29;;;;;;;;;;;26.90;49.90;;;;;;4973027;28;20046;-84
2021/05/10 10:39:20;;;;;;;2.85;1.33;;;26.80;49.90;;;;;;4972499;28;19993;-81
2021/05/10 10:41:56;;;;;;;3.47;1.40;;;26.70;50.30;;;;;;4972197;28;20038;-81
2021/05/10 10:44:36;;;;;;;2.38;1.20;;;26.70;50.60;;;;;;4972638;28;20050;-82
2021/05/10 10:47:03;;;;;;;5.95;1.60;;;26.70;50.50;;;;;;4974232;28;20404;-86
2021/05/10 10:49:51;;;;;;;2.75;1.50;;;26.60;50.70;;;;;;4967919;28;20062;-84
2021/05/10 10:52:22;;;;;;;3.30;1.60;;;26.60;51.20;;;;;;4968749;28;20047;-77
2021/05/10 10:55:12;;;;;;;7.63;4.20;;;26.70;51.70;;;;;;4960534;28;20133;-82
2021/05/10 10:57:37;;;;;;;4.28;2.65;;;26.90;51.10;;;;;;4975604;28;20038;-80
2021/05/10 11:00:04;;;;;;;3.35;1.70;;;27.00;51.30;;;;;;4971932;28;20049;-75
2021/05/10 11:02:49;;;;;;;3.28;1.25;;;27.00;51.40;;;;;;4972184;28;20053;-81
2021/05/10 11:05:27;;;;;;;3.38;1.70;;;26.90;51.10;;;;;;4973273;28;20030;-77
2021/05/10 11:10:48;;;;;;;1.88;1.30;;;26.60;51.60;;;;;;4971417;28;20049;-81
2021/05/10 11:13:43;;;;;;;5.53;1.60;;;26.70;51.30;;;;;;4971927;28;20050;-80
2021/05/10 11:16:16;;;;;;;5.00;1.67;;;26.80;51.40;;;;;;4971443;28;20050;-77
2021/05/10 11:18:55;;;;;;;4.85;1.63;;;26.70;49.70;;;;;;4971700;28;20054;-77
2021/05/10 11:21:25;;;;;;;7.43;1.60;;;26.70;49.60;;;;;;4967217;28;20046;-75
2021/05/10 11:23:51;;;;;;;2.50;1.20;;;26.70;49.90;;;;;;4956275;28;20042;-77
2021/05/10 11:26:38;;;;;;;4.97;1.50;;;26.80;49.70;;;;;;4973364;28;20540;-81
2021/05/10 11:29:08;;;;;;;5.75;1.50;;;26.80;50.00;;;;;;4971882;28;20039;-76
2021/05/10 11:31:37;;;;;;;2.80;1.30;;;26.80;49.70;;;;;;4971462;28;20046;-77
2021/05/10 11:34:09;;;;;;;5.55;1.40;;;26.80;49.80;;;;;;4971559;28;20602;-74
2021/05/10 11:36:46;;;;;;;7.50;1.48;;;26.70;49.60;;;;;;4977549;28;20101;-76
2021/05/10 11:39:14;;;;;;;3.65;1.42;;;26.80;49.70;;;;;;4990764;28;20038;-75
2021/05/10 11:41:42;;;;;;;4.13;1.25;;;26.80;50.00;;;;;;4989618;28;20034;-81
2021/05/10 11:44:09;;;;;;;;;;;26.70;49.90;;;;;;4992822;28;20030;-76
2021/05/10 11:46:41;;;;;;;2.40;1.30;;;26.80;50.20;;;;;;4990713;28;19913;-75
2021/05/10 11:49:09;;;;;;;9.10;2.13;;;26.70;50.30;;;;;;4990675;28;20042;-77
2021/05/10 11:51:37;;;;;;;6.25;1.95;;;26.70;50.60;;;;;;4990403;28;20490;-76
2021/05/10 11:54:06;;;;;;;6.38;1.50;;;26.70;50.40;;;;;;4990327;28;20057;-76
2021/05/10 11:56:41;;;;;;;6.78;1.50;;;26.80;50.40;;;;;;4990489;28;20046;-76
2021/05/10 11:59:40;;;;;;;5.30;1.33;;;26.80;50.50;;;;;;4992639;28;20042;-77
2021/05/10 12:02:14;;;;;;;2.15;1.10;;;26.80;50.80;;;;;;4990478;28;20069;-78
2021/05/10 12:04:42;;;;;;;4.32;1.38;;;27.00;51.10;;;;;;4990672;28;20081;-78
2021/05/10 12:07:09;;;;;;;3.15;1.10;;;26.90;50.60;;;;;;4990103;28;20069;-77
2021/05/10 12:09:45;;;;;;;3.00;1.35;;;26.90;50.60;;;;;;4990156;28;20105;-77
2021/05/10 12:12:13;;;;;;;8.13;1.90;;;27.00;50.50;;;;;;4990369;28;20274;-76
2021/05/10 12:14:40;;;;;;;6.28;1.45;;;27.00;50.40;;;;;;4989854;28;20030;-76
2021/05/10 12:17:09;;;;;;;7.72;1.65;;;27.00;50.30;;;;;;4991639;28;20072;-78
2021/05/10 12:19:50;;;;;;;4.30;1.40;;;27.00;50.50;;;;;;4988725;28;20097;-76
2021/05/10 12:22:17;;;;;;;2.78;1.20;;;27.00;50.50;;;;;;4989770;28;20035;-77
2021/05/10 12:24:56;;;;;;;3.47;1.63;;;27.00;50.60;;;;;;4990350;28;20045;-77
2021/05/10 12:27:23;;;;;;;3.95;1.35;;;26.70;50.80;;;;;;4990051;28;20264;-78
2021/05/10 12:29:49;;;;;;;6.20;1.60;;;26.60;51.30;;;;;;4990049;28;20069;-80
2021/05/10 12:32:15;;;;;;;11.32;1.13;;;26.40;51.80;;;;;;4991655;28;20037;-80
2021/05/10 12:34:41;;;;;;;3.17;1.10;;;26.20;52.00;;;;;;4990020;28;20030;-79
2021/05/10 12:37:07;;;;;;;3.95;1.60;;;26.20;52.10;;;;;;4988740;28;20057;-83
2021/05/10 12:39:33;;;;;;;7.05;1.30;;;26.40;52.00;;;;;;4990240;28;20457;-80
2021/05/10 12:42:19;;;;;;;3.43;1.23;;;26.20;51.90;;;;;;4989070;28;20395;-80
2021/05/10 12:45:21;;;;;;;4.63;1.25;;;26.40;52.60;;;;;;4989526;28;20268;-82
2021/05/10 12:47:49;;;;;;;4.07;1.40;;;26.20;52.40;;;;;;4993609;28;20451;-80
2021/05/10 12:50:31;;;;;;;4.45;1.20;;;26.10;52.70;;;;;;4997697;28;20130;-81
2021/05/10 12:53:01;;;;;;;3.65;1.58;;;26.00;52.80;;;;;;5011646;28;20104;-78
2021/05/10 12:55:26;;;;;;;4.13;0.90;;;26.00;52.90;;;;;;4996017;28;20455;-81
2021/05/10 12:57:52;;;;;;;5.20;1.42;;;25.80;53.10;;;;;;4996550;28;20062;-80
2021/05/10 13:00:29;;;;;;;4.25;1.23;;;25.60;53.60;;;;;;4996217;28;20042;-78
2021/05/10 13:02:56;;;;;;;5.25;1.50;;;25.50;53.80;;;;;;4994391;28;20030;-79
2021/05/10 13:05:29;;;;;;;5.93;1.90;;;25.70;54.00;;;;;;4995655;28;20019;-77
2021/05/10 13:07:55;;;;;;;5.55;1.60;;;25.50;53.80;;;;;;4996011;28;20018;-78
2021/05/10 13:10:21;;;;;;;3.90;1.20;;;25.60;53.80;;;;;;4994493;28;20109;-78
2021/05/10 13:12:48;;;;;;;6.20;1.58;;;25.60;53.60;;;;;;4995630;28;20042;-80
2021/05/10 13:15:36;;;;;;;7.10;1.53;;;25.60;53.60;;;;;;4996156;28;20455;-79
2021/05/10 13:21:26;;;;;;;4.63;1.38;;;25.80;53.40;;;;;;4995720;28;20473;-78
2021/05/10 13:31:59;;;;;;;5.57;1.20;;;25.90;52.20;;;;;;4995872;28;20463;-78
2021/05/10 13:34:58;;;;;;;4.50;1.02;;;25.90;52.20;;;;;;4995312;28;20064;-79
2021/05/10 13:37:25;;;;;;;1.52;0.90;;;25.80;52.70;;;;;;4995597;28;20034;-79
2021/05/10 13:39:51;;;;;;;8.32;1.48;;;25.70;52.00;;;;;;4995293;28;20046;-78
2021/05/10 13:42:24;;;;;;;1.38;0.95;;;25.70;51.80;;;;;;4995059;28;20117;-79
2021/05/10 13:44:51;;;;;;;4.93;0.95;;;25.60;52.00;;;;;;4995548;28;20078;-79
2021/05/10 13:47:17;;;;;;;7.00;1.70;;;25.80;52.50;;;;;;4996487;28;20060;-80
2021/05/10 13:49:44;;;;;;;9.18;1.55;;;25.80;52.60;;;;;;4995531;28;20769;-79
2021/05/10 13:52:10;;;;;;;4.93;1.93;;;25.80;53.60;;;;;;4995555;28;20038;-77